createdAt,value
2018-03-06T00:01:25.067Z,2.30
2018-03-06T00:03:52.067Z,1.90
2018-03-06T00:06:19.082Z,2.20
2018-03-06T00:08:46.091Z,2.50
2018-03-06T00:11:13.098Z,2.70
2018-03-06T00:13:40.863Z,3.10
2018-03-06T00:16:08.636Z,2.40
2018-03-06T00:18:35.638Z,2.40
2018-03-06T00:21:02.670Z,2.10
2018-03-06T00:23:29.653Z,1.90
2018-03-06T00:25:57.429Z,1.80
2018-03-06T00:28:24.456Z,1.80
2018-03-06T00:30:51.479Z,1.70
2018-03-06T00:33:18.493Z,1.70
2018-03-06T00:35:45.499Z,1.60
2018-03-06T00:38:13.278Z,1.70
2018-03-06T00:40:40.281Z,1.80
2018-03-06T00:43:07.297Z,1.70
2018-03-06T00:45:34.303Z,1.50
2018-03-06T00:48:02.087Z,1.50
2018-03-06T00:50:29.100Z,1.50
2018-03-06T00:52:56.114Z,1.60
2018-03-06T00:55:23.115Z,1.60
2018-03-06T00:57:50.132Z,1.60
2018-03-06T01:00:17.133Z,1.70
2018-03-06T01:02:44.142Z,1.50
2018-03-06T01:05:11.914Z,1.50
2018-03-06T01:07:38.935Z,1.50
2018-03-06T01:10:05.935Z,1.40
2018-03-06T01:12:32.951Z,1.30
2018-03-06T01:15:00.714Z,1.20
2018-03-06T01:17:28.507Z,1.20
2018-03-06T01:19:55.511Z,1.30
2018-03-06T01:22:23.296Z,0.90
2018-03-06T01:24:50.306Z,1.00
2018-03-06T01:27:17.327Z,0.90
2018-03-06T01:29:44.335Z,0.80
2018-03-06T01:32:11.347Z,0.80
2018-03-06T01:34:38.358Z,0.70
2018-03-06T01:37:05.363Z,0.70
2018-03-06T01:39:32.369Z,0.60
2018-03-06T01:41:59.378Z,0.60
2018-03-06T01:44:26.394Z,0.60
2018-03-06T01:46:54.162Z,0.60
2018-03-06T01:49:21.939Z,0.60
2018-03-06T01:51:54.883Z,0.60
2018-03-06T01:54:21.896Z,0.60
2018-03-06T01:56:48.898Z,0.50
2018-03-06T01:59:16.672Z,0.40
2018-03-06T02:01:43.679Z,0.50
2018-03-06T02:04:10.699Z,0.40
2018-03-06T02:06:37.709Z,0.30
2018-03-06T02:09:04.718Z,0.40
2018-03-06T02:11:31.713Z,0.40
2018-03-06T02:13:58.723Z,0.40
2018-03-06T02:16:26.496Z,0.40
2018-03-06T02:18:54.272Z,0.40
2018-03-06T02:21:21.276Z,0.50
2018-03-06T02:23:48.287Z,0.50
2018-03-06T02:26:15.291Z,0.50
2018-03-06T02:28:43.077Z,0.40
2018-03-06T02:31:10.083Z,0.50
2018-03-06T02:33:37.106Z,0.40
2018-03-06T02:36:04.115Z,0.30
2018-03-06T02:38:31.119Z,0.30
2018-03-06T02:40:58.147Z,0.30
2018-03-06T02:43:25.147Z,0.30
2018-03-06T02:45:58.005Z,0.30
2018-03-06T02:48:25.019Z,0.30
2018-03-06T02:50:52.022Z,0.70
2018-03-06T02:53:19.034Z,0.90
2018-03-06T02:55:46.043Z,0.80
2018-03-06T02:58:13.047Z,0.60
2018-03-06T03:00:40.818Z,0.50
2018-03-06T03:03:07.843Z,0.60
2018-03-06T03:05:34.868Z,0.40
2018-03-06T03:08:01.867Z,0.40
2018-03-06T03:10:28.878Z,0.30
2018-03-06T03:12:55.887Z,0.20
2018-03-06T03:15:22.900Z,0.10
2018-03-06T03:17:49.906Z,0.00
2018-03-06T03:20:16.912Z,0.00
2018-03-06T03:22:43.963Z,-0.10
2018-03-06T03:25:10.989Z,-0.20
2018-03-06T03:27:38.002Z,-0.30
2018-03-06T03:30:05.031Z,-0.40
2018-03-06T03:32:32.039Z,-0.40
2018-03-06T03:34:59.051Z,-0.40
2018-03-06T03:37:26.824Z,-0.50
2018-03-06T03:39:53.842Z,-0.50
2018-03-06T03:42:20.985Z,-0.50
2018-03-06T03:44:47.869Z,-0.50
2018-03-06T03:47:14.895Z,-0.50
2018-03-06T03:49:42.673Z,-0.50
2018-03-06T03:52:09.690Z,-0.40
2018-03-06T03:54:36.700Z,-0.60
2018-03-06T03:57:03.715Z,-0.70
2018-03-06T03:59:30.725Z,-0.60
2018-03-06T04:01:57.750Z,-0.60
2018-03-06T04:04:24.756Z,-0.60
2018-03-06T04:06:51.783Z,-0.60
2018-03-06T04:09:19.561Z,-0.50
2018-03-06T04:11:46.614Z,-0.40
2018-03-06T04:14:13.631Z,-0.40
2018-03-06T04:16:41.414Z,-0.50
2018-03-06T04:19:08.428Z,-0.40
2018-03-06T04:21:35.459Z,-0.50
2018-03-06T04:24:02.463Z,-0.60
2018-03-06T04:26:29.479Z,-0.70
2018-03-06T04:28:57.258Z,-0.70
2018-03-06T04:31:24.295Z,-0.60
2018-03-06T04:33:52.062Z,-0.70
2018-03-06T04:36:19.837Z,-0.70
2018-03-06T04:38:46.852Z,-0.80
2018-03-06T04:41:13.878Z,-0.80
2018-03-06T04:43:40.885Z,-0.80
2018-03-06T04:46:07.902Z,-0.60
2018-03-06T04:48:35.678Z,-0.80
2018-03-06T04:51:02.702Z,-0.80
2018-03-06T04:53:29.724Z,-0.80
2018-03-06T04:55:56.725Z,-0.80
2018-03-06T04:58:23.747Z,-0.60
2018-03-06T05:00:51.533Z,-0.70
2018-03-06T05:03:18.564Z,-0.70
2018-03-06T05:05:46.344Z,-0.70
2018-03-06T05:08:13.367Z,-0.60
2018-03-06T05:10:41.157Z,-0.80
2018-03-06T05:13:08.179Z,-0.70
2018-03-06T05:15:35.949Z,-0.80
2018-03-06T05:18:03.743Z,-0.80
2018-03-06T05:20:30.760Z,-0.60
2018-03-06T05:22:57.803Z,-0.80
2018-03-06T05:25:25.587Z,-0.70
2018-03-06T05:27:52.609Z,-0.70
2018-03-06T05:30:20.462Z,-0.60
2018-03-06T05:32:47.486Z,-0.80
2018-03-06T05:35:14.498Z,-0.80
2018-03-06T05:37:41.510Z,-0.60
2018-03-06T05:40:09.286Z,-0.90
2018-03-06T05:42:36.317Z,-0.80
2018-03-06T05:45:03.319Z,-0.70
2018-03-06T05:47:30.339Z,-0.90
2018-03-06T05:49:57.409Z,-0.90
2018-03-06T05:52:25.139Z,-0.90
2018-03-06T05:54:52.154Z,-0.90
2018-03-06T05:57:19.167Z,-0.90
2018-03-06T05:59:46.179Z,-0.80
2018-03-06T06:02:13.199Z,-0.80
2018-03-06T06:04:40.222Z,-0.60
2018-03-06T06:07:07.238Z,-0.80
2018-03-06T06:09:35.023Z,-0.80
2018-03-06T06:12:02.049Z,-0.90
2018-03-06T06:14:29.066Z,-0.80
2018-03-06T06:16:56.836Z,-0.70
2018-03-06T06:19:23.863Z,-0.60
2018-03-06T06:21:51.643Z,-0.40
2018-03-06T06:24:19.414Z,-0.30
2018-03-06T06:26:46.422Z,-0.70
2018-03-06T06:29:13.442Z,-0.20
2018-03-06T06:31:40.459Z,-0.40
2018-03-06T06:34:07.491Z,-0.40
2018-03-06T06:36:34.507Z,-0.20
2018-03-06T06:39:01.535Z,0.00
2018-03-06T06:41:28.558Z,-0.10
2018-03-06T06:43:55.582Z,-0.20
2018-03-06T06:46:23.671Z,0.00
2018-03-06T06:48:50.678Z,0.00
2018-03-06T06:51:18.450Z,0.20
2018-03-06T06:53:46.248Z,0.20
2018-03-06T06:56:13.258Z,0.50
2018-03-06T06:58:41.052Z,0.40
2018-03-06T07:01:08.050Z,0.60
2018-03-06T07:03:35.342Z,0.50
2018-03-06T07:06:02.397Z,0.60
2018-03-06T07:08:29.399Z,0.70
2018-03-06T07:10:56.410Z,0.90
2018-03-06T07:13:23.435Z,0.90
2018-03-06T07:15:50.438Z,1.00
2018-03-06T07:18:18.204Z,1.20
2018-03-06T07:20:45.991Z,1.20
2018-03-06T07:23:13.768Z,1.50
2018-03-06T07:25:40.783Z,1.50
2018-03-06T07:28:09.465Z,1.50
2018-03-06T07:30:37.238Z,1.40
2018-03-06T07:33:04.998Z,1.60
2018-03-06T07:35:32.786Z,1.50
2018-03-06T07:37:59.785Z,1.70
2018-03-06T07:40:26.999Z,1.70
2018-03-06T07:42:53.995Z,1.90
2018-03-06T07:45:21.793Z,2.30
2018-03-06T07:47:48.798Z,2.50
2018-03-06T07:50:15.811Z,2.50
2018-03-06T07:52:42.810Z,2.70
2018-03-06T07:55:09.834Z,2.80
2018-03-06T07:57:36.843Z,2.90
2018-03-06T08:00:03.842Z,2.90
2018-03-06T08:02:31.616Z,3.00
2018-03-06T08:04:58.627Z,3.10
2018-03-06T08:07:25.630Z,3.20
2018-03-06T08:09:52.626Z,3.50
2018-03-06T08:12:19.650Z,3.70
2018-03-06T08:14:46.643Z,4.00
2018-03-06T08:17:13.764Z,4.00
2018-03-06T08:19:40.766Z,4.00
2018-03-06T08:22:07.766Z,4.30
2018-03-06T08:24:35.533Z,4.50
2018-03-06T08:27:03.294Z,5.00
2018-03-06T08:29:31.058Z,5.10
2018-03-06T08:31:58.830Z,5.00
2018-03-06T08:34:26.597Z,4.90
2018-03-06T08:36:53.605Z,4.90
2018-03-06T08:39:20.607Z,5.10
2018-03-06T08:41:47.618Z,5.00
2018-03-06T08:44:15.395Z,5.50
2018-03-06T08:46:42.407Z,5.50
2018-03-06T08:49:09.410Z,5.80
2018-03-06T08:51:36.419Z,5.80
2018-03-06T08:54:04.196Z,5.50
2018-03-06T08:56:31.978Z,5.90
2018-03-06T08:58:58.983Z,5.80
2018-03-06T09:01:26.003Z,5.90
2018-03-06T09:03:53.020Z,6.10
2018-03-06T09:06:20.022Z,6.40
2018-03-06T09:08:47.791Z,6.40
2018-03-06T09:11:15.587Z,6.70
2018-03-06T09:13:42.578Z,6.60
2018-03-06T09:16:09.588Z,6.60
2018-03-06T09:18:36.595Z,6.60
2018-03-06T09:21:04.370Z,6.60
2018-03-06T09:23:32.142Z,6.70
2018-03-06T09:25:59.148Z,6.70
2018-03-06T09:28:26.151Z,6.50
2018-03-06T09:30:53.159Z,6.50
2018-03-06T09:33:20.931Z,6.80
2018-03-06T09:35:48.695Z,6.60
2018-03-06T09:38:16.462Z,6.80
2018-03-06T09:40:43.472Z,6.80
2018-03-06T09:43:10.479Z,7.00
2018-03-06T09:45:37.478Z,7.00
2018-03-06T09:48:05.247Z,7.20
2018-03-06T09:50:33.022Z,7.80
2018-03-06T09:53:00.812Z,7.30
2018-03-06T09:55:27.823Z,7.30
2018-03-06T09:57:55.597Z,7.20
2018-03-06T10:00:22.616Z,7.20
2018-03-06T10:02:49.615Z,7.80
2018-03-06T10:05:16.615Z,8.10
2018-03-06T10:07:43.632Z,8.00
2018-03-06T10:10:10.649Z,8.00
2018-03-06T10:12:37.674Z,8.30
2018-03-06T10:15:04.692Z,8.50
2018-03-06T10:17:31.689Z,8.20
2018-03-06T10:19:58.696Z,8.40
2018-03-06T10:22:26.469Z,9.30
2018-03-06T10:24:54.252Z,9.40
2018-03-06T10:27:21.255Z,9.30
2018-03-06T10:29:48.270Z,9.60
2018-03-06T10:32:15.271Z,9.80
2018-03-06T10:34:43.058Z,9.50
2018-03-06T10:37:10.065Z,9.50
2018-03-06T10:39:37.838Z,9.10
2018-03-06T10:42:05.603Z,9.40
2018-03-06T10:44:33.390Z,9.90
2018-03-06T10:47:00.395Z,9.90
2018-03-06T10:49:27.415Z,10.00
2018-03-06T10:51:54.425Z,10.30
2018-03-06T10:54:21.437Z,10.20
2018-03-06T10:56:49.214Z,10.10
2018-03-06T10:59:17.006Z,9.90
2018-03-06T11:01:44.007Z,10.00
2018-03-06T11:04:11.020Z,10.30
2018-03-06T11:06:38.027Z,10.20
2018-03-06T11:09:05.031Z,9.90
2018-03-06T11:11:32.031Z,9.80
2018-03-06T11:13:59.051Z,9.90
2018-03-06T11:16:26.824Z,10.30
2018-03-06T11:18:53.836Z,10.20
2018-03-06T11:21:20.867Z,10.00
2018-03-06T11:23:47.875Z,10.20
2018-03-06T11:26:14.893Z,10.00
2018-03-06T11:28:42.667Z,10.20
2018-03-06T11:31:10.439Z,10.10
2018-03-06T11:33:37.451Z,10.10
2018-03-06T11:36:04.477Z,10.00
2018-03-06T11:38:31.476Z,10.00
2018-03-06T11:40:58.497Z,9.90
2018-03-06T11:43:26.274Z,10.30
2018-03-06T11:45:54.063Z,10.20
2018-03-06T11:48:21.068Z,10.20
2018-03-06T11:50:48.078Z,10.20
2018-03-06T11:53:15.083Z,9.80
2018-03-06T11:55:42.096Z,10.10
2018-03-06T11:58:09.098Z,10.10
2018-03-06T12:00:36.110Z,10.00
2018-03-06T12:03:03.879Z,9.90
2018-03-06T12:05:30.900Z,9.90
2018-03-06T12:07:57.915Z,9.80
2018-03-06T12:10:24.930Z,10.00
2018-03-06T12:12:51.946Z,10.30
2018-03-06T12:15:19.734Z,10.00
2018-03-06T12:17:46.755Z,10.00
2018-03-06T12:20:14.560Z,10.50
2018-03-06T12:22:41.700Z,10.50
2018-03-06T12:25:08.712Z,10.60
2018-03-06T12:27:36.474Z,10.80
2018-03-06T12:30:04.260Z,10.90
2018-03-06T12:32:32.042Z,10.80
2018-03-06T12:34:59.047Z,10.80
2018-03-06T12:37:26.818Z,11.00
2018-03-06T12:39:54.590Z,10.90
2018-03-06T12:42:22.363Z,10.90
2018-03-06T12:44:49.372Z,11.00
2018-03-06T12:47:16.398Z,10.70
2018-03-06T12:49:43.398Z,11.00
2018-03-06T12:52:10.416Z,10.80
2018-03-06T12:54:37.431Z,10.40
2018-03-06T12:57:04.453Z,10.70
2018-03-06T12:59:31.451Z,10.80
2018-03-06T13:01:59.242Z,10.80
2018-03-06T13:04:27.014Z,10.80
2018-03-06T13:06:54.035Z,10.80
2018-03-06T13:09:21.807Z,11.00
2018-03-06T13:11:48.831Z,11.00
2018-03-06T13:14:15.839Z,10.80
2018-03-06T13:16:42.843Z,10.80
2018-03-06T13:19:10.610Z,10.70
2018-03-06T13:21:38.401Z,10.70
2018-03-06T13:24:05.417Z,10.70
2018-03-06T13:26:33.187Z,10.60
2018-03-06T13:29:00.959Z,10.70
2018-03-06T13:31:27.982Z,10.60
2018-03-06T13:33:55.771Z,10.70
2018-03-06T13:36:22.782Z,10.70
2018-03-06T13:38:50.568Z,10.50
2018-03-06T13:41:18.341Z,10.60
2018-03-06T13:43:45.350Z,10.50
2018-03-06T13:46:12.355Z,10.50
2018-03-06T13:48:39.366Z,10.50
2018-03-06T13:51:07.140Z,10.70
2018-03-06T13:53:34.161Z,10.70
2018-03-06T13:56:01.939Z,10.60
2018-03-06T13:58:29.711Z,10.80
2018-03-06T14:00:56.718Z,10.80
2018-03-06T14:03:23.735Z,10.80
2018-03-06T14:05:50.747Z,11.00
2018-03-06T14:08:17.751Z,11.10
2018-03-06T14:10:44.758Z,11.00
2018-03-06T14:13:11.770Z,11.10
2018-03-06T14:15:39.541Z,11.00
2018-03-06T14:18:07.321Z,10.90
2018-03-06T14:20:34.327Z,10.90
2018-03-06T14:23:01.346Z,11.00
2018-03-06T14:25:28.357Z,11.00
2018-03-06T14:27:55.370Z,11.10
2018-03-06T14:30:22.380Z,11.10
2018-03-06T14:32:49.379Z,11.00
2018-03-06T14:35:17.150Z,11.10
2018-03-06T14:37:44.173Z,11.00
2018-03-06T14:40:11.985Z,11.00
2018-03-06T14:42:39.020Z,11.00
2018-03-06T14:45:06.128Z,11.10
2018-03-06T14:47:33.926Z,11.00
2018-03-06T14:50:00.984Z,11.00
2018-03-06T14:52:28.019Z,11.10
2018-03-06T14:54:55.041Z,11.20
2018-03-06T14:57:22.826Z,11.10
2018-03-06T14:59:49.844Z,11.00
2018-03-06T15:02:17.620Z,11.10
2018-03-06T15:04:45.409Z,11.20
2018-03-06T15:07:12.428Z,11.20
2018-03-06T15:09:40.234Z,11.10
2018-03-06T15:12:07.244Z,11.00
2018-03-06T15:14:35.075Z,11.00
2018-03-06T15:17:02.087Z,10.90
2018-03-06T15:19:29.095Z,10.90
2018-03-06T15:21:56.863Z,10.90
2018-03-06T15:24:24.639Z,10.80
2018-03-06T15:26:51.654Z,10.80
2018-03-06T15:29:18.672Z,10.80
2018-03-06T15:31:45.685Z,10.80
2018-03-06T15:34:12.779Z,10.70
2018-03-06T15:36:39.787Z,10.80
2018-03-06T15:39:06.810Z,10.80
2018-03-06T15:41:34.595Z,10.60
2018-03-06T15:44:01.607Z,10.60
2018-03-06T15:46:29.371Z,10.50
2018-03-06T15:48:57.138Z,10.50
2018-03-06T15:51:24.910Z,10.50
2018-03-06T15:53:51.918Z,10.40
2018-03-06T15:56:18.933Z,10.30
2018-03-06T15:58:45.946Z,10.20
2018-03-06T16:01:12.993Z,10.20
2018-03-06T16:03:39.959Z,10.20
2018-03-06T16:06:06.965Z,10.10
2018-03-06T16:08:33.987Z,10.10
2018-03-06T16:11:00.996Z,10.10
2018-03-06T16:13:28.007Z,10.00
2018-03-06T16:15:55.779Z,9.80
2018-03-06T16:18:23.551Z,9.70
2018-03-06T16:20:50.558Z,9.70
2018-03-06T16:23:17.563Z,9.70
2018-03-06T16:25:44.566Z,9.60
2018-03-06T16:28:12.408Z,9.50
2018-03-06T16:30:39.423Z,9.50
2018-03-06T16:33:06.522Z,9.40
2018-03-06T16:35:34.303Z,9.30
2018-03-06T16:38:02.068Z,9.20
2018-03-06T16:40:29.838Z,9.20
2018-03-06T16:42:56.847Z,9.20
2018-03-06T16:45:23.852Z,9.10
2018-03-06T16:47:50.891Z,9.10
2018-03-06T16:50:17.941Z,9.10
2018-03-06T16:52:44.956Z,9.00
2018-03-06T16:55:12.723Z,9.00
2018-03-06T16:57:40.482Z,8.90
2018-03-06T17:00:08.263Z,8.80
2018-03-06T17:02:35.269Z,8.80
2018-03-06T17:05:02.275Z,8.80
2018-03-06T17:07:29.270Z,8.70
2018-03-06T17:09:57.041Z,8.60
2018-03-06T17:12:24.822Z,8.50
2018-03-06T17:14:52.615Z,8.50
2018-03-06T17:17:19.617Z,8.50
2018-03-06T17:19:47.394Z,8.20
2018-03-06T17:22:14.403Z,8.20
2018-03-06T17:24:41.403Z,8.10
2018-03-06T17:27:08.411Z,8.00
2018-03-06T17:29:36.182Z,7.80
2018-03-06T17:32:03.980Z,7.70
2018-03-06T17:34:30.998Z,7.70
2018-03-06T17:36:58.772Z,7.60
2018-03-06T17:39:25.779Z,7.50
2018-03-06T17:41:53.702Z,7.40
2018-03-06T17:44:21.566Z,7.30
2018-03-06T17:46:49.340Z,7.30
2018-03-06T17:49:16.331Z,7.20
2018-03-06T17:51:43.345Z,7.20
2018-03-06T17:54:10.738Z,7.20
2018-03-06T17:56:38.510Z,7.00
2018-03-06T17:59:06.276Z,6.80
2018-03-06T18:01:34.091Z,6.70
2018-03-06T18:04:01.110Z,6.70
2018-03-06T18:06:28.114Z,6.70
2018-03-06T18:08:55.882Z,6.70
2018-03-06T18:11:23.679Z,6.60
2018-03-06T18:13:51.290Z,6.60
2018-03-06T18:16:18.314Z,6.60
2018-03-06T18:18:45.310Z,6.50
2018-03-06T18:21:12.334Z,6.40
2018-03-06T18:23:39.338Z,6.40
2018-03-06T18:26:06.350Z,6.40
2018-03-06T18:28:34.115Z,6.30
2018-03-06T18:31:01.148Z,6.30
2018-03-06T18:33:28.927Z,6.20
2018-03-06T18:35:55.939Z,6.20
2018-03-06T18:38:22.953Z,6.30
2018-03-06T18:40:50.726Z,6.10
2018-03-06T18:43:17.742Z,6.10
2018-03-06T18:45:44.742Z,6.00
2018-03-06T18:48:11.741Z,5.90
2018-03-06T18:50:44.538Z,5.80
2018-03-06T18:53:11.551Z,5.70
2018-03-06T18:55:38.558Z,5.60
2018-03-06T18:58:05.565Z,5.60
2018-03-06T19:00:52.266Z,5.60
2018-03-06T19:03:25.075Z,5.50
2018-03-06T19:05:58.065Z,5.50
2018-03-06T19:08:25.081Z,5.40
2018-03-06T19:10:52.135Z,5.40
2018-03-06T19:13:19.161Z,5.30
2018-03-06T19:15:46.158Z,5.20
2018-03-06T19:18:13.202Z,5.20
2018-03-06T19:20:40.203Z,5.10
2018-03-06T19:23:07.220Z,5.00
2018-03-06T19:25:34.236Z,5.00
2018-03-06T19:28:01.260Z,5.00
2018-03-06T19:30:28.266Z,5.00
2018-03-06T19:32:56.057Z,4.80
2018-03-06T19:35:23.051Z,4.80
2018-03-06T19:37:50.165Z,4.80
2018-03-06T19:40:17.886Z,4.70
2018-03-06T19:42:45.659Z,4.70
2018-03-06T19:45:12.682Z,4.70
2018-03-06T19:47:40.466Z,4.60
2018-03-06T19:50:07.476Z,4.60
2018-03-06T19:52:34.479Z,4.50
2018-03-06T19:55:01.493Z,4.30
2018-03-06T19:57:29.284Z,4.30
2018-03-06T19:59:56.300Z,4.20
2018-03-06T20:02:24.090Z,4.30
2018-03-06T20:04:51.141Z,4.30
2018-03-06T20:07:18.140Z,4.30
2018-03-06T20:09:45.154Z,4.20
2018-03-06T20:12:12.167Z,4.20
2018-03-06T20:14:45.024Z,4.20
2018-03-06T20:17:12.831Z,4.30
2018-03-06T20:19:40.789Z,4.30
2018-03-06T20:22:07.776Z,4.30
2018-03-06T20:24:40.479Z,4.30
2018-03-06T20:27:08.244Z,4.50
2018-03-06T20:29:36.028Z,4.40
2018-03-06T20:32:08.895Z,4.40
2018-03-06T20:34:36.675Z,4.20
2018-03-06T20:37:03.688Z,4.20
2018-03-06T20:39:36.280Z,4.10
2018-03-06T20:42:04.110Z,4.20
2018-03-06T20:44:31.126Z,4.20
2018-03-06T20:47:04.725Z,4.20
2018-03-06T20:49:31.730Z,4.20
2018-03-06T20:51:58.757Z,4.40
2018-03-06T20:54:31.567Z,4.40
2018-03-06T20:56:59.338Z,4.20
2018-03-06T20:59:27.106Z,4.10
2018-03-06T21:01:54.116Z,4.10
2018-03-06T21:04:21.125Z,4.10
2018-03-06T21:06:48.126Z,4.00
2018-03-06T21:09:15.902Z,4.00
2018-03-06T21:11:43.685Z,4.00
2018-03-06T21:14:10.697Z,4.00
2018-03-06T21:16:38.462Z,3.90
2018-03-06T21:19:05.469Z,3.90
2018-03-06T21:21:32.470Z,3.90
2018-03-06T21:24:00.286Z,4.00
2018-03-06T21:26:27.300Z,4.00
2018-03-06T21:28:54.320Z,4.10
2018-03-06T21:31:22.098Z,4.20
2018-03-06T21:33:49.108Z,4.10
2018-03-06T21:36:16.129Z,4.20
2018-03-06T21:38:43.123Z,4.10
2018-03-06T21:41:10.895Z,4.10
2018-03-06T21:43:37.906Z,4.10
2018-03-06T21:46:04.915Z,4.10
2018-03-06T21:48:31.922Z,4.10
2018-03-06T21:50:59.690Z,4.10
2018-03-06T21:53:26.698Z,4.10
2018-03-06T21:55:53.696Z,4.30
2018-03-06T21:58:21.507Z,4.30
2018-03-06T22:00:48.524Z,4.30
2018-03-06T22:03:15.527Z,4.30
2018-03-06T22:05:43.298Z,4.30
2018-03-06T22:08:11.055Z,4.30
2018-03-06T22:10:38.830Z,4.30
2018-03-06T22:13:05.844Z,4.40
2018-03-06T22:15:32.863Z,4.30
2018-03-06T22:17:59.866Z,4.30
2018-03-06T22:20:26.883Z,4.30
2018-03-06T22:22:53.886Z,4.30
2018-03-06T22:25:20.894Z,4.30
2018-03-06T22:27:48.673Z,4.30
2018-03-06T22:30:15.680Z,4.30
2018-03-06T22:32:42.686Z,4.40
2018-03-06T22:35:09.690Z,4.40
2018-03-06T22:37:37.455Z,4.40
2018-03-06T22:40:05.222Z,4.40
2018-03-06T22:42:32.995Z,4.30
2018-03-06T22:45:00.006Z,4.30
2018-03-06T22:47:27.014Z,4.40
2018-03-06T22:49:54.019Z,4.40
2018-03-06T22:52:21.790Z,4.40
2018-03-06T22:54:49.555Z,4.30
2018-03-06T22:57:17.322Z,4.30
2018-03-06T22:59:44.330Z,4.20
2018-03-06T23:02:11.346Z,4.20
2018-03-06T23:04:38.349Z,4.20
2018-03-06T23:07:06.121Z,4.30
2018-03-06T23:09:33.888Z,4.30
2018-03-06T23:12:01.664Z,4.20
2018-03-06T23:14:28.664Z,4.20
2018-03-06T23:16:55.679Z,4.30
2018-03-06T23:19:22.682Z,4.20
2018-03-06T23:21:50.457Z,4.20
2018-03-06T23:24:17.459Z,4.20
2018-03-06T23:26:44.468Z,4.20
2018-03-06T23:29:11.479Z,4.10
2018-03-06T23:31:39.250Z,4.10
2018-03-06T23:34:06.277Z,4.00
2018-03-06T23:36:34.082Z,3.90
2018-03-06T23:39:01.094Z,3.90
2018-03-06T23:41:28.895Z,3.90
2018-03-06T23:43:55.903Z,3.90
2018-03-06T23:46:23.694Z,4.00
2018-03-06T23:48:50.695Z,4.00
2018-03-06T23:51:17.691Z,4.00
2018-03-06T23:53:44.702Z,4.00
2018-03-06T23:56:12.498Z,4.00
2018-03-06T23:58:39.534Z,4.10
